ロサンゼルス の空港の天気 - METARとTAF

ロサンゼルス国際空港 ( KLAX / LAX ) - アメリカ カリフォルニア州ロサンゼルス
飛行場実況気象(Metar)
観測時間09/27 16:53 PDT (09/27 23:53 UTC)
風向・風速西南西 6m/s
視程10km以上
天気現象
少しの雲 雲底高度 3350m
少しの雲 雲底高度 4570m
全天の4割程度の雲 雲底高度 7620m
気温23.9℃
湿度64%
気圧1009.8hPa
METARKLAX 272353Z 25012KT 10SM FEW110 FEW150 SCT250 24/17 A2982 RMK AO2 SLP098 T02390167 10272 20239 56010
過去の天気等 Google飛行場航空写真 Wunderground天気予報

過去48時間のMETAR

飛行場予報(TAF)
発表時間: 9/27 16:43 PDT (9/27 23:43 UTC)
予報対象時間: 27日17時 PDT ~ 28日23時 PDT
風向・風速西 6m/s
視程10km以上
少しの雲 雲底高度 1220m
少しの雲 雲底高度 4270m
27日21時 PDT から
風向・風速不定 3m/s
視程10km以上
なし
28日6時 PDT から
風向・風速不定 2m/s
視程10km以上
天気現象もや
全天の4割程度の雲 雲底高度 150m
28日10時 PDT から
風向・風速西 3m/s
視程10km以上
なし
28日13時 PDT から
風向・風速西 6m/s
視程10km以上
なし
KLAX 272343Z 2800/2906 26012KT P6SM FEW040 FEW140
FM280400 VRB05KT P6SM SKC
FM281300 VRB03KT 6SM BR SCT005
FM281700 26005KT P6SM SKC
FM282000 26012KT P6SM SKC